Time;durP1;ratioP1;P1;durP2;ratioP2;P2;SDS_P1;SDS_P2;PMS_P1;PMS_P2;Temp;Humidity;BMP_temperature;BMP_pressure;BME280_temperature;BME280_humidity;BME280_pressure;Samples;Min_cycle;Max_cycle;Signal;HPM_P1;HPM_P2
2022/04/20 00:00:59;;;;;;;2.97;2.73;;;9.50;99.90;;;;;;5082294;28;20436;-80
2022/04/20 00:03:43;;;;;;;2.97;2.77;;;9.50;99.90;;;;;;5082759;28;20903;-81
2022/04/20 00:06:30;;;;;;;2.70;2.50;;;9.50;99.90;;;;;;5082142;28;20409;-80
2022/04/20 00:09:15;;;;;;;4.93;3.90;;;9.50;99.90;;;;;;5082783;28;20388;-80
2022/04/20 00:11:59;;;;;;;4.93;2.83;;;9.40;99.90;;;;;;5082489;28;20956;-81
2022/04/20 00:14:44;;;;;;;2.70;2.50;;;9.40;99.90;;;;;;5082483;28;20413;-80
2022/04/20 00:17:28;;;;;;;3.40;3.10;;;9.30;99.90;;;;;;5087988;28;20397;-80
2022/04/20 00:20:13;;;;;;;3.00;2.80;;;9.30;99.90;;;;;;5088159;28;20384;-81
2022/04/20 00:22:58;;;;;;;3.13;2.77;;;9.20;99.90;;;;;;5088655;28;20421;-81
2022/04/20 00:25:42;;;;;;;2.50;2.30;;;9.20;99.90;;;;;;5088078;28;20424;-80
2022/04/20 00:28:27;;;;;;;3.30;3.00;;;9.20;99.90;;;;;;5089921;28;20388;-81
2022/04/20 00:31:12;;;;;;;4.17;3.47;;;9.30;99.90;;;;;;5088252;28;20392;-80
2022/04/20 00:33:57;;;;;;;2.67;2.47;;;9.20;99.90;;;;;;5082813;28;20404;-81
2022/04/20 00:36:41;;;;;;;4.70;3.07;;;9.20;99.90;;;;;;5081954;28;20881;-80
2022/04/20 00:39:26;;;;;;;4.20;3.60;;;9.10;99.90;;;;;;5067262;28;20400;-81
2022/04/20 00:42:11;;;;;;;2.90;2.70;;;9.10;99.90;;;;;;5082920;28;20389;-80
2022/04/20 00:44:55;;;;;;;5.70;3.23;;;9.00;99.90;;;;;;5080850;28;20472;-80
2022/04/20 00:47:43;;;;;;;3.27;2.90;;;9.00;99.90;;;;;;5081206;28;20924;-80
2022/04/20 00:50:27;;;;;;;7.20;3.23;;;9.00;99.90;;;;;;5082006;28;20393;-80
2022/04/20 00:53:12;;;;;;;4.77;3.57;;;9.00;99.90;;;;;;5080995;28;20388;-80
2022/04/20 00:55:56;;;;;;;4.23;3.80;;;9.00;99.90;;;;;;5081057;28;20460;-81
2022/04/20 00:58:42;;;;;;;4.33;3.77;;;8.90;99.90;;;;;;5081093;28;20532;-80
2022/04/20 01:01:27;;;;;;;4.23;3.87;;;8.90;99.90;;;;;;5081650;28;20397;-80
2022/04/20 01:04:12;;;;;;;7.30;3.70;;;8.80;99.90;;;;;;5059843;28;20504;-80
2022/04/20 01:07:08;;;;;;;5.40;4.00;;;8.90;99.90;;;;;;5061460;28;20387;-80
2022/04/20 01:09:53;;;;;;;5.93;4.47;;;8.80;99.90;;;;;;5061473;28;20428;-80
2022/04/20 01:12:38;;;;;;;8.63;4.17;;;8.70;99.90;;;;;;5060991;28;20386;-81
2022/04/20 01:15:22;;;;;;;6.20;3.20;;;8.70;99.90;;;;;;5061337;28;20439;-81
2022/04/20 01:18:18;;;;;;;6.50;4.20;;;8.60;99.90;;;;;;5061171;28;20398;-81
2022/04/20 01:21:05;;;;;;;3.90;3.20;;;8.60;99.90;;;;;;5061443;28;20379;-81
2022/04/20 01:23:50;;;;;;;4.93;3.07;;;8.60;99.90;;;;;;5061587;28;20436;-81
2022/04/20 01:26:35;;;;;;;4.13;3.83;;;8.50;99.90;;;;;;5061339;28;20398;-81
2022/04/20 01:29:21;;;;;;;6.17;3.93;;;8.50;99.90;;;;;;5066537;28;20757;-80
2022/04/20 01:32:06;;;;;;;3.97;3.23;;;8.20;99.90;;;;;;5060319;28;20437;-81
2022/04/20 01:34:52;;;;;;;3.63;3.30;;;8.10;99.90;;;;;;5059540;28;20418;-80
2022/04/20 01:37:36;;;;;;;9.90;3.40;;;8.20;99.90;;;;;;5059751;28;20424;-80
2022/04/20 01:40:21;;;;;;;5.23;3.93;;;8.10;99.90;;;;;;5060808;28;20948;-80
2022/04/20 01:43:06;;;;;;;4.60;3.63;;;7.90;99.90;;;;;;5059593;28;20470;-80
2022/04/20 01:45:50;;;;;;;3.87;3.20;;;7.70;99.90;;;;;;5060844;28;20444;-80
2022/04/20 01:48:34;;;;;;;3.03;2.60;;;7.70;99.90;;;;;;5059934;28;20405;-80
2022/04/20 01:54:19;;;;;;;4.47;2.93;;;7.50;99.90;;;;;;5059149;28;20470;-81
2022/04/20 01:57:05;;;;;;;10.50;3.73;;;7.70;99.90;;;;;;5059175;28;20886;-81
2022/04/20 01:59:49;;;;;;;4.07;3.27;;;7.70;99.90;;;;;;5060367;28;20401;-81
2022/04/20 02:02:34;;;;;;;3.83;3.53;;;7.70;99.90;;;;;;5065518;28;20449;-81
2022/04/20 02:05:19;;;;;;;6.33;3.83;;;7.90;99.90;;;;;;5079548;28;20400;-81
2022/04/20 02:08:05;;;;;;;3.47;2.90;;;7.90;99.90;;;;;;5064969;28;20381;-81
2022/04/20 02:10:49;;;;;;;7.13;3.90;;;8.00;99.90;;;;;;5079591;28;20377;-80
2022/04/20 02:13:34;;;;;;;3.20;2.67;;;8.00;99.90;;;;;;5079794;28;20456;-79
2022/04/20 02:16:19;;;;;;;3.63;3.33;;;8.00;99.90;;;;;;5079243;28;20385;-81
2022/04/20 02:19:05;;;;;;;4.67;2.80;;;7.80;99.90;;;;;;5079354;28;20462;-81
2022/04/20 02:21:50;;;;;;;3.60;3.20;;;7.90;99.90;;;;;;5078478;28;20413;-81
2022/04/20 02:24:35;;;;;;;3.93;3.60;;;7.60;99.90;;;;;;5087161;28;20393;-77
2022/04/20 02:27:19;;;;;;;11.60;3.70;;;7.50;99.90;;;;;;5095863;28;20381;-79
2022/04/20 02:30:06;;;;;;;4.00;3.00;;;7.50;99.90;;;;;;5094972;28;20419;-78
2022/04/20 02:32:51;;;;;;;8.43;3.13;;;7.60;99.90;;;;;;5088040;28;20754;-80
2022/04/20 02:35:36;;;;;;;3.70;3.20;;;7.60;99.90;;;;;;5081190;28;20389;-81
2022/04/20 02:38:21;;;;;;;3.20;2.90;;;7.60;99.90;;;;;;5080985;28;20435;-80
2022/04/20 02:41:06;;;;;;;5.43;2.97;;;7.60;99.90;;;;;;5080497;28;20401;-79
2022/04/20 02:43:51;;;;;;;4.00;3.40;;;7.70;99.90;;;;;;5080112;28;20377;-80
2022/04/20 02:46:36;;;;;;;4.67;2.80;;;7.60;99.90;;;;;;5079449;28;20552;-80
2022/04/20 02:49:21;;;;;;;4.33;3.93;;;7.60;99.90;;;;;;5080614;28;21003;-79
2022/04/20 02:52:06;;;;;;;4.20;3.40;;;7.60;99.90;;;;;;5078310;28;20420;-81
2022/04/20 02:54:51;;;;;;;5.63;3.90;;;7.50;99.90;;;;;;5073817;28;20479;-80
2022/04/20 02:57:35;;;;;;;7.23;3.97;;;7.50;99.90;;;;;;5079198;28;20397;-80
2022/04/20 03:00:20;;;;;;;4.67;3.63;;;7.50;99.90;;;;;;5079854;28;20443;-81
2022/04/20 03:03:05;;;;;;;6.83;3.47;;;7.50;99.90;;;;;;5082437;28;20487;-80
2022/04/20 03:05:50;;;;;;;3.27;3.07;;;7.50;99.90;;;;;;5084589;28;20385;-80
2022/04/20 03:08:35;;;;;;;4.70;3.13;;;7.40;99.90;;;;;;5084517;28;20450;-80
2022/04/20 03:11:21;;;;;;;3.43;3.17;;;7.40;99.90;;;;;;5086836;28;20381;-80
2022/04/20 03:14:05;;;;;;;4.20;3.43;;;7.30;99.90;;;;;;5091399;28;20466;-80
2022/04/20 03:16:51;;;;;;;8.33;4.00;;;7.10;99.90;;;;;;5083631;28;20757;-80
2022/04/20 03:19:36;;;;;;;6.97;3.90;;;6.90;99.90;;;;;;5083596;28;20408;-80
2022/04/20 03:22:21;;;;;;;5.30;4.00;;;6.80;99.90;;;;;;5083775;28;20434;-80
2022/04/20 03:25:06;;;;;;;6.07;3.53;;;6.60;99.90;;;;;;5083266;28;20571;-81
2022/04/20 03:27:51;;;;;;;5.90;3.53;;;6.70;99.90;;;;;;5083770;28;20794;-79
2022/04/20 03:30:38;;;;;;;4.20;3.30;;;6.80;99.90;;;;;;5084008;28;20397;-80
2022/04/20 03:33:22;;;;;;;5.47;3.30;;;6.80;99.90;;;;;;5083232;28;20447;-81
2022/04/20 03:36:07;;;;;;;3.33;3.07;;;6.80;99.90;;;;;;5082018;28;20453;-81
2022/04/20 03:38:51;;;;;;;11.50;4.13;;;6.90;99.90;;;;;;5083189;28;20385;-80
2022/04/20 03:41:35;;;;;;;4.70;3.57;;;7.00;99.90;;;;;;5084086;28;20427;-80
2022/04/20 03:44:20;;;;;;;5.40;4.13;;;7.00;99.90;;;;;;5083206;28;20404;-80
2022/04/20 03:47:04;;;;;;;3.90;3.17;;;6.90;99.90;;;;;;5079179;28;20425;-80
2022/04/20 03:49:49;;;;;;;3.83;3.20;;;6.90;99.90;;;;;;5080676;28;20437;-81
2022/04/20 03:52:33;;;;;;;5.43;3.60;;;6.90;99.90;;;;;;5083469;28;20482;-80
2022/04/20 03:55:18;;;;;;;5.20;4.27;;;6.80;99.90;;;;;;5082617;28;20452;-80
2022/04/20 03:58:02;;;;;;;6.53;3.20;;;6.90;99.90;;;;;;5083467;28;20393;-80
2022/04/20 04:00:47;;;;;;;10.50;4.30;;;6.50;99.90;;;;;;5082447;28;20401;-80
2022/04/20 04:03:34;;;;;;;3.43;3.13;;;6.40;99.90;;;;;;5082388;28;20506;-80
2022/04/20 04:06:19;;;;;;;5.07;3.40;;;6.60;99.90;;;;;;5082448;28;20443;-80
2022/04/20 04:09:03;;;;;;;4.73;3.20;;;6.70;99.90;;;;;;5082808;28;20389;-80
2022/04/20 04:11:48;;;;;;;6.60;4.70;;;6.70;99.90;;;;;;5082902;28;20381;-80
2022/04/20 04:14:37;;;;;;;4.63;3.40;;;6.70;99.90;;;;;;5081897;28;20436;-81
2022/04/20 04:17:22;;;;;;;4.67;3.80;;;6.80;99.90;;;;;;5082605;28;20397;-80
2022/04/20 04:20:07;;;;;;;4.30;3.93;;;6.80;99.90;;;;;;5082792;28;20423;-81
2022/04/20 04:22:51;;;;;;;3.57;3.27;;;6.90;99.90;;;;;;5082198;28;20404;-80
2022/04/20 04:25:36;;;;;;;3.67;3.30;;;6.90;99.90;;;;;;5080710;28;20489;-81
2022/04/20 04:28:21;;;;;;;3.70;3.30;;;6.90;99.90;;;;;;5081166;28;20436;-81
2022/04/20 04:31:06;;;;;;;5.80;4.30;;;6.90;99.90;;;;;;5066425;28;20892;-81
2022/04/20 04:33:50;;;;;;;4.10;3.20;;;6.80;99.90;;;;;;5082079;28;20519;-81
2022/04/20 04:36:35;;;;;;;3.60;3.30;;;6.80;99.90;;;;;;5065996;28;20412;-81
2022/04/20 04:39:21;;;;;;;6.10;4.07;;;6.80;99.90;;;;;;5081197;28;20518;-80
2022/04/20 04:42:06;;;;;;;4.33;3.43;;;6.90;99.90;;;;;;5081605;28;20452;-81
2022/04/20 04:44:50;;;;;;;6.07;4.37;;;6.90;99.90;;;;;;5081177;28;20443;-82
2022/04/20 04:50:31;;;;;;;5.83;3.90;;;6.90;99.90;;;;;;5081838;28;20493;-81
2022/04/20 04:53:15;;;;;;;4.20;3.80;;;6.90;99.90;;;;;;5082071;28;20442;-81
2022/04/20 04:56:00;;;;;;;5.03;3.70;;;6.80;99.90;;;;;;5081027;28;20464;-81
2022/04/20 04:58:45;;;;;;;4.33;3.93;;;6.80;99.90;;;;;;5081526;28;20473;-79
2022/04/20 05:01:30;;;;;;;3.60;3.30;;;6.80;99.90;;;;;;5081470;28;20446;-81
2022/04/20 05:04:14;;;;;;;4.03;3.60;;;6.80;99.90;;;;;;5065541;28;20805;-81
2022/04/20 05:06:59;;;;;;;7.53;3.93;;;6.80;99.90;;;;;;5079890;28;20394;-80
2022/04/20 05:09:44;;;;;;;3.50;2.87;;;6.90;99.90;;;;;;5077309;28;20493;-81
2022/04/20 05:12:28;;;;;;;6.27;4.43;;;6.90;99.90;;;;;;5082551;28;20483;-81
2022/04/20 05:15:13;;;;;;;5.03;3.80;;;7.00;99.90;;;;;;5085803;28;20456;-80
2022/04/20 05:17:58;;;;;;;3.00;2.77;;;7.00;99.90;;;;;;5085604;28;20512;-81
2022/04/20 05:20:43;;;;;;;3.57;3.27;;;7.10;99.90;;;;;;5083776;28;20491;-81
2022/04/20 05:23:27;;;;;;;4.07;2.87;;;7.10;99.90;;;;;;5084505;28;20431;-81
2022/04/20 05:26:11;;;;;;;4.80;3.50;;;7.10;99.90;;;;;;5082111;28;20392;-81
2022/04/20 05:28:55;;;;;;;6.70;3.97;;;7.20;99.90;;;;;;5084878;28;20417;-81
2022/04/20 05:31:40;;;;;;;5.23;3.93;;;7.20;99.90;;;;;;5084408;28;20389;-81
2022/04/20 05:34:26;;;;;;;4.80;3.20;;;7.30;99.90;;;;;;5083625;28;20515;-80
2022/04/20 05:43:14;;;;;;;3.57;2.80;;;7.30;99.90;;;;;;5079079;28;20512;-81
2022/04/20 05:45:59;;;;;;;6.80;3.27;;;7.30;99.90;;;;;;5076155;28;20761;-82
2022/04/20 05:48:43;;;;;;;4.00;3.60;;;7.40;99.90;;;;;;5086416;28;20435;-80
2022/04/20 05:51:28;;;;;;;5.10;4.27;;;7.50;99.90;;;;;;5087282;28;20451;-82
2022/04/20 05:54:13;;;;;;;5.90;5.07;;;7.60;99.90;;;;;;5093338;28;20483;-79
2022/04/20 05:56:59;;;;;;;4.33;3.60;;;7.60;99.90;;;;;;5081004;28;20405;-81
2022/04/20 05:59:43;;;;;;;6.20;5.10;;;7.70;99.90;;;;;;5078976;28;20552;-81
2022/04/20 06:02:29;;;;;;;5.57;3.90;;;7.70;99.90;;;;;;5066761;28;20451;-80
2022/04/20 06:05:13;;;;;;;5.70;4.33;;;7.80;99.90;;;;;;5079038;28;20455;-80
2022/04/20 06:07:58;;;;;;;8.13;5.37;;;7.90;99.90;;;;;;5078848;28;20475;-80
2022/04/20 06:10:46;;;;;;;18.40;3.90;;;7.90;99.90;;;;;;5066557;28;20543;-81
2022/04/20 06:13:32;;;;;;;8.03;4.30;;;7.80;99.90;;;;;;5079366;28;20447;-81
2022/04/20 06:16:17;;;;;;;5.67;4.40;;;7.70;99.90;;;;;;5074357;28;20420;-81
2022/04/20 06:19:01;;;;;;;5.37;4.50;;;8.00;99.90;;;;;;5078791;28;20497;-81
2022/04/20 06:21:45;;;;;;;3.93;3.53;;;8.00;99.90;;;;;;5064569;28;20436;-80
2022/04/20 06:24:30;;;;;;;7.50;4.23;;;8.10;99.90;;;;;;5082981;28;20459;-78
2022/04/20 06:27:15;;;;;;;6.63;5.50;;;8.20;99.90;;;;;;5079671;28;20448;-79
2022/04/20 06:30:01;;;;;;;5.37;4.40;;;8.30;99.90;;;;;;5081319;28;20578;-80
2022/04/20 06:32:45;;;;;;;7.47;4.33;;;8.20;99.90;;;;;;5085222;28;20466;-80
2022/04/20 06:35:29;;;;;;;8.57;5.10;;;8.10;99.90;;;;;;5071139;28;20433;-79
2022/04/20 06:38:15;;;;;;;5.87;4.20;;;8.30;99.90;;;;;;5088323;28;20436;-79
2022/04/20 06:41:00;;;;;;;6.23;4.70;;;8.40;99.90;;;;;;5089782;28;20444;-78
2022/04/20 06:43:45;;;;;;;7.30;6.60;;;8.40;99.90;;;;;;5084759;28;20444;-79
2022/04/20 06:46:29;;;;;;;5.07;4.53;;;8.40;99.90;;;;;;5090376;28;20428;-79
2022/04/20 06:49:15;;;;;;;13.40;4.13;;;8.30;99.90;;;;;;5065802;28;21029;-81
2022/04/20 07:01:00;;;;;;;7.80;3.87;;;8.70;99.90;;;;;;5075914;28;20475;-81
2022/04/20 07:03:44;;;;;;;8.27;4.63;;;8.60;99.90;;;;;;5062011;28;20511;-80
2022/04/20 07:06:29;;;;;;;5.83;4.10;;;8.70;99.90;;;;;;5079323;28;20429;-81
2022/04/20 07:09:13;;;;;;;7.77;3.90;;;8.90;99.90;;;;;;5077729;28;20415;-81
2022/04/20 07:11:58;;;;;;;4.40;3.80;;;8.80;99.90;;;;;;5083220;28;20405;-81
2022/04/20 07:14:42;;;;;;;7.33;3.30;;;9.00;99.90;;;;;;5080621;28;20487;-82
2022/04/20 07:17:27;;;;;;;9.07;4.50;;;9.10;99.90;;;;;;5080017;28;20471;-81
2022/04/20 07:20:17;;;;;;;5.40;4.87;;;9.20;99.90;;;;;;5047736;28;20463;-79
2022/04/20 07:23:01;;;;;;;4.23;3.87;;;9.30;99.90;;;;;;5081319;28;20424;-80
2022/04/20 07:25:46;;;;;;;8.30;5.07;;;9.40;99.90;;;;;;5079543;28;20513;-81
2022/04/20 07:28:31;;;;;;;7.47;4.07;;;9.40;99.90;;;;;;5080573;28;20747;-81
2022/04/20 07:31:16;;;;;;;7.43;3.97;;;9.60;99.90;;;;;;5065979;28;20505;-81
2022/04/20 07:34:00;;;;;;;10.83;4.20;;;9.80;99.90;;;;;;5079046;28;20495;-82
2022/04/20 07:36:45;;;;;;;6.90;4.40;;;9.80;99.90;;;;;;5075372;28;20585;-82
2022/04/20 07:39:29;;;;;;;7.33;3.90;;;9.90;99.90;;;;;;5075770;28;20435;-80
2022/04/20 07:42:14;;;;;;;4.83;4.33;;;10.10;99.90;;;;;;5064644;28;20896;-82
2022/04/20 07:44:59;;;;;;;5.60;4.40;;;10.30;99.90;;;;;;5062566;28;20437;-80
2022/04/20 07:47:44;;;;;;;5.80;4.50;;;10.40;99.90;;;;;;5089324;28;20463;-78
2022/04/20 07:50:29;;;;;;;4.23;3.80;;;10.30;99.90;;;;;;5092553;28;20437;-79
2022/04/20 07:53:13;;;;;;;6.43;4.40;;;10.30;99.90;;;;;;5091806;28;20777;-80
2022/04/20 07:55:58;;;;;;;8.47;5.63;;;10.50;99.90;;;;;;5091487;28;20475;-80
2022/04/20 07:58:43;;;;;;;4.93;3.37;;;10.60;99.90;;;;;;5081266;28;20443;-80
2022/04/20 08:01:28;;;;;;;3.57;3.37;;;10.80;99.90;;;;;;5087890;28;20533;-81
2022/04/20 08:04:12;;;;;;;7.33;4.77;;;10.90;99.90;;;;;;5089252;28;20514;-79
2022/04/20 08:06:56;;;;;;;4.83;4.33;;;10.60;99.90;;;;;;5071456;28;20441;-80
2022/04/20 08:09:41;;;;;;;5.70;3.53;;;10.90;99.90;;;;;;5086203;28;20428;-79
2022/04/20 08:12:28;;;;;;;6.07;5.03;;;10.80;99.90;;;;;;5088631;28;20440;-81
2022/04/20 08:15:13;;;;;;;11.57;4.17;;;10.70;99.90;;;;;;5072904;28;20452;-80
2022/04/20 08:17:57;;;;;;;4.40;3.70;;;11.00;99.90;;;;;;5090783;28;20405;-80
2022/04/20 08:20:43;;;;;;;4.70;4.30;;;10.90;99.90;;;;;;5077873;28;20469;-82
2022/04/20 08:23:29;;;;;;;6.90;4.03;;;11.00;99.90;;;;;;5080980;28;20448;-81
2022/04/20 08:26:14;;;;;;;5.00;4.50;;;11.20;99.90;;;;;;5065245;28;20420;-80
2022/04/20 08:28:58;;;;;;;3.73;3.43;;;10.60;99.90;;;;;;5075677;28;20413;-82
2022/04/20 08:31:43;;;;;;;4.57;3.37;;;10.50;99.90;;;;;;5076061;28;20421;-81
2022/04/20 08:34:28;;;;;;;8.40;4.80;;;10.60;99.90;;;;;;5058800;28;20456;-79
2022/04/20 08:37:13;;;;;;;4.13;3.60;;;10.90;99.90;;;;;;5059163;28;21209;-79
2022/04/20 08:39:58;;;;;;;6.93;4.30;;;10.80;99.90;;;;;;5056594;28;20440;-82
2022/04/20 08:42:43;;;;;;;4.47;4.07;;;10.70;99.90;;;;;;5057934;28;20424;-81
2022/04/20 08:45:29;;;;;;;3.73;3.40;;;11.10;99.90;;;;;;5058912;28;20424;-82
2022/04/20 08:48:15;;;;;;;5.90;4.20;;;11.50;99.90;;;;;;5081051;28;20452;-82
2022/04/20 08:51:04;;;;;;;5.87;3.83;;;11.90;99.90;;;;;;5063828;28;20438;-82
2022/04/20 08:53:49;;;;;;;3.87;3.57;;;12.00;99.90;;;;;;5066779;28;20460;-82
2022/04/20 08:59:38;;;;;;;2.93;2.73;;;12.00;99.30;;;;;;5063446;28;20479;-81
2022/04/20 09:02:24;;;;;;;6.60;3.93;;;12.10;94.90;;;;;;5061958;28;20464;-81
2022/04/20 09:05:09;;;;;;;4.37;3.90;;;11.90;92.50;;;;;;5076887;28;21191;-79
2022/04/20 09:07:55;;;;;;;3.77;3.40;;;11.50;92.20;;;;;;5066042;28;20460;-81
2022/04/20 09:10:40;;;;;;;4.23;3.50;;;11.70;95.00;;;;;;5077885;28;20431;-80
2022/04/20 09:13:33;;;;;;;5.27;4.33;;;11.90;95.20;;;;;;5079737;28;20979;-82
2022/04/20 09:16:18;;;;;;;5.27;4.27;;;11.90;93.50;;;;;;5077594;28;20535;-81
2022/04/20 09:19:04;;;;;;;4.80;3.83;;;12.10;94.90;;;;;;5078955;28;20425;-81
2022/04/20 09:21:51;;;;;;;4.83;3.30;;;12.30;95.40;;;;;;5088681;28;20444;-80
2022/04/20 09:24:36;;;;;;;4.33;3.93;;;12.10;91.70;;;;;;5056174;28;20463;-82
2022/04/20 09:27:21;;;;;;;7.70;3.83;;;12.70;92.80;;;;;;5083386;28;20515;-79
2022/04/20 09:30:11;;;;;;;3.80;3.40;;;12.90;91.70;;;;;;5081240;28;20512;-80
2022/04/20 09:32:55;;;;;;;5.43;3.67;;;12.80;89.20;;;;;;5079646;28;22198;-79
2022/04/20 09:35:43;;;;;;;3.80;3.50;;;12.90;86.70;;;;;;5086329;28;20428;-80
2022/04/20 09:38:28;;;;;;;4.53;4.00;;;13.30;88.10;;;;;;5070260;28;20451;-79
2022/04/20 09:41:12;;;;;;;3.30;3.10;;;12.90;79.70;;;;;;5083495;28;20505;-80
2022/04/20 09:44:14;;;;;;;6.23;3.53;;;13.10;77.40;;;;;;5067094;28;20455;-82
2022/04/20 09:50:03;;;;;;;3.80;3.03;;;13.70;76.20;;;;;;5060949;28;20953;-81
2022/04/20 09:52:48;;;;;;;4.00;3.10;;;12.60;68.20;;;;;;5063212;28;20428;-81
2022/04/20 09:55:35;;;;;;;3.00;2.57;;;12.70;69.00;;;;;;5057307;28;20515;-81
2022/04/20 09:58:21;;;;;;;5.50;3.67;;;13.40;74.50;;;;;;5070858;28;20429;-81
2022/04/20 10:01:06;;;;;;;7.40;3.03;;;13.80;72.90;;;;;;5059635;28;20511;-80
2022/04/20 10:03:58;;;;;;;3.23;2.77;;;13.70;68.10;;;;;;5073960;28;20556;-79
2022/04/20 10:06:43;;;;;;;4.03;3.20;;;14.10;68.70;;;;;;5059268;28;20462;-81
2022/04/20 10:09:28;;;;;;;3.27;2.97;;;14.50;69.80;;;;;;5078857;28;20772;-80
2022/04/20 10:12:15;;;;;;;3.93;2.70;;;14.60;69.50;;;;;;5075001;28;21727;-81
2022/04/20 10:18:09;;;;;;;3.30;2.87;;;15.20;69.70;;;;;;5078196;28;20485;-79
2022/04/20 10:20:57;;;;;;;2.80;2.60;;;15.50;63.80;;;;;;5075395;28;20460;-80
2022/04/20 10:23:48;;;;;;;3.37;2.97;;;14.70;60.60;;;;;;5029767;28;20488;-82
2022/04/20 10:26:34;;;;;;;3.67;3.27;;;14.40;59.00;;;;;;5070390;28;20432;-80
2022/04/20 10:29:53;;;;;;;3.23;2.93;;;15.00;59.70;;;;;;5066091;28;20414;-80
2022/04/20 10:32:59;;;;;;;3.60;3.30;;;14.40;57.10;;;;;;5072221;28;20413;-80
2022/04/20 10:36:00;;;;;;;4.50;2.70;;;14.30;56.70;;;;;;5059646;28;20433;-80
2022/04/20 10:38:46;;;;;;;3.13;2.90;;;14.40;57.90;;;;;;5062485;28;20493;-82
2022/04/20 10:41:31;;;;;;;3.80;3.40;;;15.00;60.10;;;;;;5044184;28;20539;-81
2022/04/20 10:44:15;;;;;;;4.63;3.33;;;15.80;65.10;;;;;;5058190;28;20440;-81
2022/04/20 10:47:04;;;;;;;4.07;3.10;;;15.60;56.40;;;;;;5056434;28;21409;-80
2022/04/20 10:49:51;;;;;;;4.00;3.47;;;15.20;57.20;;;;;;5077333;28;20436;-80
2022/04/20 10:52:37;;;;;;;3.50;3.10;;;15.40;57.00;;;;;;5083610;28;20429;-81
2022/04/20 10:55:50;;;;;;;4.93;3.80;;;15.50;59.00;;;;;;5079005;28;20468;-82
2022/04/20 10:58:35;;;;;;;7.23;3.40;;;15.90;58.30;;;;;;5047879;28;20478;-80
2022/04/20 11:01:20;;;;;;;3.87;3.57;;;15.20;52.40;;;;;;5075324;28;20448;-82
2022/04/20 11:04:05;;;;;;;3.73;3.43;;;14.60;54.00;;;;;;5073318;28;20638;-79
2022/04/20 11:07:12;;;;;;;4.80;3.90;;;15.80;55.80;;;;;;5061318;28;20416;-82
2022/04/20 11:09:59;;;;;;;5.00;3.50;;;16.20;56.50;;;;;;5069727;28;20456;-83
2022/04/20 11:19:11;;;;;;;4.87;4.50;;;15.20;52.90;;;;;;5084289;28;20519;-80
2022/04/20 11:22:12;;;;;;;5.30;4.70;;;16.50;57.30;;;;;;5083425;28;20494;-81
2022/04/20 11:25:05;;;;;;;4.20;3.40;;;16.10;55.00;;;;;;5085512;28;20470;-81
2022/04/20 11:27:49;;;;;;;5.57;3.80;;;17.20;56.40;;;;;;5051691;28;20529;-81
2022/04/20 11:30:54;;;;;;;3.73;3.27;;;17.50;55.80;;;;;;5065996;28;20479;-81
2022/04/20 11:33:40;;;;;;;4.50;3.60;;;19.20;54.20;;;;;;5024820;28;20608;-80
2022/04/20 11:36:24;;;;;;;4.00;3.60;;;20.80;52.30;;;;;;5040158;28;20469;-80
2022/04/20 11:39:10;;;;;;;4.07;3.67;;;21.10;49.30;;;;;;5002151;28;20492;-80
2022/04/20 11:41:58;;;;;;;4.30;4.00;;;20.90;50.40;;;;;;5003246;28;20427;-80
2022/04/20 11:44:42;;;;;;;4.70;4.00;;;21.50;47.80;;;;;;5004364;28;20420;-80
2022/04/20 11:47:27;;;;;;;5.20;3.57;;;18.90;47.30;;;;;;5004541;28;20413;-82
2022/04/20 11:50:13;;;;;;;3.40;3.10;;;20.30;51.00;;;;;;4997786;28;20432;-81
2022/04/20 11:52:59;;;;;;;4.37;3.97;;;20.30;48.30;;;;;;4985062;28;20429;-79
2022/04/20 11:55:46;;;;;;;4.05;3.55;;;19.80;49.10;;;;;;4997671;28;20450;-79
2022/04/20 11:58:32;;;;;;;8.30;3.80;;;19.80;48.80;;;;;;4977277;28;20204;-80
2022/04/20 12:01:20;;;;;;;4.97;4.10;;;21.50;48.70;;;;;;4986518;28;20405;-81
2022/04/20 12:04:18;;;;;;;4.20;3.90;;;21.00;47.30;;;;;;5020959;28;20478;-81
2022/04/20 12:07:03;;;;;;;4.30;3.90;;;22.40;46.70;;;;;;5039930;28;20446;-78
2022/04/20 12:09:54;;;;;;;3.77;3.47;;;21.80;48.80;;;;;;5053699;28;20467;-80
2022/04/20 12:12:42;;;;;;;6.07;4.50;;;22.70;47.60;;;;;;5084291;28;20396;-81
2022/04/20 12:15:27;;;;;;;4.47;4.07;;;20.70;46.40;;;;;;5065905;28;20526;-80
2022/04/20 12:18:12;;;;;;;4.30;3.43;;;20.20;47.20;;;;;;5078447;28;20428;-81
2022/04/20 12:20:57;;;;;;;3.90;3.60;;;20.40;48.30;;;;;;5060586;28;20486;-81
2022/04/20 12:23:46;;;;;;;4.37;4.00;;;21.50;49.50;;;;;;5045841;28;20931;-83
2022/04/20 12:26:31;;;;;;;5.50;3.90;;;22.60;45.80;;;;;;5074723;28;20432;-80
2022/04/20 12:29:19;;;;;;;4.63;4.30;;;21.20;45.20;;;;;;5085477;28;20415;-82
2022/04/20 12:32:05;;;;;;;4.47;4.07;;;19.10;48.10;;;;;;5054293;28;20423;-83
2022/04/20 12:34:54;;;;;;;4.43;3.80;;;20.10;49.20;;;;;;5079238;28;20533;-82
2022/04/20 12:37:39;;;;;;;4.10;3.80;;;21.10;48.00;;;;;;5079272;28;20896;-82
2022/04/20 12:40:24;;;;;;;3.60;3.30;;;23.00;46.30;;;;;;5049087;28;20478;-82
2022/04/20 12:43:12;;;;;;;4.27;3.70;;;21.40;45.60;;;;;;5061926;28;20486;-84
2022/04/20 12:46:13;;;;;;;3.53;3.10;;;19.40;47.00;;;;;;5056280;28;20429;-80
2022/04/20 12:48:57;;;;;;;4.03;3.73;;;20.60;49.10;;;;;;5079020;28;20518;-83
2022/04/20 12:51:41;;;;;;;3.60;3.30;;;22.80;47.80;;;;;;5081625;28;20473;-78
2022/04/20 12:54:26;;;;;;;3.17;2.90;;;23.80;45.40;;;;;;5086339;28;20455;-79
2022/04/20 13:03:20;;;;;;;4.37;3.97;;;21.40;47.30;;;;;;5076206;28;20474;-80
2022/04/20 13:06:06;;;;;;;3.77;3.47;;;22.60;49.20;;;;;;5069356;28;20431;-78
2022/04/20 13:08:51;;;;;;;4.80;3.90;;;22.90;44.50;;;;;;5073140;28;20432;-78
2022/04/20 13:11:38;;;;;;;4.77;2.80;;;21.00;46.00;;;;;;5052001;28;20423;-81
2022/04/20 13:14:23;;;;;;;3.13;2.83;;;21.50;45.30;;;;;;5086003;28;20513;-80
2022/04/20 13:17:11;;;;;;;3.43;3.13;;;19.70;48.00;;;;;;5070878;28;20456;-81
2022/04/20 13:19:56;;;;;;;3.90;3.60;;;21.70;47.10;;;;;;5071177;28;20424;-81
2022/04/20 13:22:41;;;;;;;5.60;4.03;;;20.80;47.30;;;;;;5090448;28;20424;-81
2022/04/20 13:28:28;;;;;;;5.70;3.80;;;20.10;49.10;;;;;;5085215;28;20452;-79
2022/04/20 13:31:13;;;;;;;4.43;4.00;;;20.40;51.60;;;;;;5083806;28;20435;-80
2022/04/20 13:33:58;;;;;;;3.83;3.33;;;19.80;52.20;;;;;;5060572;28;20940;-81
2022/04/20 13:36:43;;;;;;;11.00;5.10;;;19.10;51.60;;;;;;5002504;28;20546;-80
2022/04/20 13:39:29;;;;;;;3.43;3.13;;;18.10;51.60;;;;;;5021770;28;20503;-80
2022/04/20 13:42:13;;;;;;;4.20;3.30;;;17.90;52.00;;;;;;5003704;28;20547;-81
2022/04/20 13:44:58;;;;;;;3.37;3.07;;;17.50;52.90;;;;;;5012429;28;20451;-81
2022/04/20 13:47:43;;;;;;;4.57;3.90;;;17.70;52.50;;;;;;5050970;28;20466;-81
2022/04/20 13:50:31;;;;;;;2.83;2.63;;;17.80;51.90;;;;;;5043248;28;20430;-80
2022/04/20 13:53:16;;;;;;;3.50;3.20;;;18.70;53.40;;;;;;5036699;28;20473;-80
2022/04/20 13:56:00;;;;;;;2.77;2.67;;;19.70;54.10;;;;;;5035057;28;20551;-80
2022/04/20 13:58:46;;;;;;;4.40;3.13;;;19.40;53.10;;;;;;5043820;28;20461;-80
2022/04/20 14:01:30;;;;;;;3.20;2.90;;;19.10;52.20;;;;;;5045702;28;20821;-79
2022/04/20 14:04:14;;;;;;;5.57;2.80;;;18.20;54.40;;;;;;5026158;28;20481;-81
2022/04/20 14:07:19;;;;;;;3.40;3.10;;;18.80;54.20;;;;;;5036588;28;20541;-80
2022/04/20 14:10:07;;;;;;;8.73;4.27;;;18.30;54.10;;;;;;5006690;28;20463;-81
2022/04/20 14:12:53;;;;;;;2.87;2.67;;;18.40;56.10;;;;;;4989809;28;20439;-81
2022/04/20 14:15:37;;;;;;;3.90;2.60;;;18.50;54.10;;;;;;5008984;28;20497;-81
2022/04/20 14:18:22;;;;;;;3.10;2.80;;;18.60;54.50;;;;;;5014291;28;20495;-80
2022/04/20 14:21:07;;;;;;;3.60;3.30;;;17.90;56.60;;;;;;5007228;28;20470;-84
2022/04/20 14:23:52;;;;;;;3.30;3.00;;;18.10;55.00;;;;;;5008432;28;20459;-83
2022/04/20 14:32:42;;;;;;;3.40;3.10;;;17.90;56.20;;;;;;5024159;28;20427;-84
2022/04/20 14:35:28;;;;;;;3.17;2.83;;;17.10;56.60;;;;;;5022696;28;20417;-84
2022/04/20 14:38:12;;;;;;;3.80;2.80;;;17.30;56.50;;;;;;5025862;28;20520;-82
2022/04/20 14:40:58;;;;;;;4.50;3.50;;;16.80;56.40;;;;;;5034733;28;20419;-82
2022/04/20 14:43:42;;;;;;;3.07;2.87;;;17.20;57.40;;;;;;5086159;28;20444;-83
2022/04/20 14:46:27;;;;;;;3.90;3.10;;;17.40;57.40;;;;;;5055109;28;20429;-84
2022/04/20 14:49:12;;;;;;;3.23;2.90;;;17.60;57.40;;;;;;5070240;28;20416;-83
2022/04/20 14:51:57;;;;;;;9.33;8.40;;;17.60;57.60;;;;;;5085408;28;20950;-83
2022/04/20 14:54:43;;;;;;;3.00;2.70;;;17.40;57.40;;;;;;5087296;28;20475;-82
2022/04/20 14:57:28;;;;;;;4.17;3.73;;;17.50;57.60;;;;;;5092527;28;20470;-79
2022/04/20 15:00:13;;;;;;;3.47;3.17;;;17.60;57.10;;;;;;5067509;28;20435;-81
2022/04/20 15:02:58;;;;;;;4.37;2.90;;;17.20;58.40;;;;;;5058878;28;20479;-84
2022/04/20 15:05:42;;;;;;;2.50;2.30;;;17.30;59.40;;;;;;5042138;28;20393;-81
2022/04/20 15:08:27;;;;;;;3.33;2.77;;;16.60;57.70;;;;;;5076478;28;20447;-81
2022/04/20 15:11:12;;;;;;;3.33;2.70;;;16.50;59.80;;;;;;5085044;28;20427;-80
2022/04/20 15:13:58;;;;;;;7.00;2.50;;;16.30;59.10;;;;;;5083886;28;20412;-79
2022/04/20 15:16:45;;;;;;;4.43;2.70;;;16.50;60.90;;;;;;5071650;28;20421;-80
2022/04/20 15:19:31;;;;;;;3.30;3.00;;;16.50;59.80;;;;;;5079471;28;20427;-81
2022/04/20 15:22:16;;;;;;;3.80;3.40;;;16.00;61.60;;;;;;5083744;28;20575;-80